Time;durP1;ratioP1;P1;durP2;ratioP2;P2;SDS_P1;SDS_P2;PMS_P1;PMS_P2;Temp;Humidity;BMP_temperature;BMP_pressure;BME280_temperature;BME280_humidity;BME280_pressure;Samples;Min_cycle;Max_cycle;Signal;HPM_P1;HPM_P2
2023/10/22 00:00:00;;;;;;;2.72;0.85;;;14.30;99.90;;;;;;5059292;28;20028;-60
2023/10/22 00:02:25;;;;;;;5.70;0.90;;;14.30;99.90;;;;;;5060530;28;20471;-60
2023/10/22 00:04:51;;;;;;;6.63;1.10;;;14.30;99.90;;;;;;5062514;28;20086;-61
2023/10/22 00:07:16;;;;;;;8.10;0.93;;;14.30;99.90;;;;;;5059520;28;20036;-56
2023/10/22 00:09:42;;;;;;;8.48;1.05;;;14.30;99.90;;;;;;5057496;28;20112;-57
2023/10/22 00:12:08;;;;;;;4.22;0.98;;;14.30;99.90;;;;;;5059528;28;20074;-57
2023/10/22 00:14:34;;;;;;;10.32;1.13;;;14.30;99.90;;;;;;5064956;28;20549;-57
2023/10/22 00:16:59;;;;;;;5.32;1.00;;;14.30;99.90;;;;;;5059604;28;20068;-57
2023/10/22 00:19:25;;;;;;;6.22;1.10;;;14.30;99.90;;;;;;5059698;28;20028;-56
2023/10/22 00:21:50;;;;;;;3.78;1.05;;;14.30;99.90;;;;;;5063822;28;20407;-57
2023/10/22 00:24:16;;;;;;;4.82;1.25;;;14.30;99.90;;;;;;5052086;28;20619;-60
2023/10/22 00:26:42;;;;;;;4.30;0.95;;;14.30;99.90;;;;;;5061256;28;20025;-60
2023/10/22 00:29:07;;;;;;;5.97;1.10;;;14.20;99.90;;;;;;5061451;28;20036;-59
2023/10/22 00:31:33;;;;;;;6.38;1.10;;;14.20;99.90;;;;;;5061559;28;20040;-58
2023/10/22 00:33:58;;;;;;;12.18;1.30;;;14.10;99.90;;;;;;5056760;28;20033;-55
2023/10/22 00:36:24;;;;;;;7.95;1.40;;;14.10;99.90;;;;;;5060598;28;20064;-59
2023/10/22 00:38:50;;;;;;;4.93;1.05;;;14.00;99.90;;;;;;5056163;28;20029;-54
2023/10/22 00:41:16;;;;;;;4.18;0.90;;;14.00;99.90;;;;;;5061767;28;20060;-58
2023/10/22 00:43:42;;;;;;;5.90;1.50;;;14.00;99.90;;;;;;5056393;28;20049;-59
2023/10/22 00:46:15;;;;;;;7.53;1.15;;;14.00;99.90;;;;;;5057419;28;20033;-57
2023/10/22 00:48:40;;;;;;;6.95;1.17;;;14.00;99.90;;;;;;5066545;28;20029;-56
2023/10/22 00:51:06;;;;;;;6.13;0.90;;;14.00;99.90;;;;;;5061197;28;20032;-59
2023/10/22 00:53:31;;;;;;;12.20;1.15;;;14.00;99.90;;;;;;5059496;28;20029;-60
2023/10/22 00:55:57;;;;;;;7.63;0.82;;;13.90;99.90;;;;;;5061369;28;20020;-57
2023/10/22 00:58:23;;;;;;;4.13;1.00;;;13.90;99.90;;;;;;5058751;28;20078;-59
2023/10/22 01:00:48;;;;;;;5.20;1.00;;;13.80;99.90;;;;;;5054835;28;20120;-52
2023/10/22 01:03:16;;;;;;;8.82;1.30;;;13.80;99.90;;;;;;5063174;28;20035;-60
2023/10/22 01:05:41;;;;;;;4.65;0.80;;;13.80;99.90;;;;;;5058733;28;20040;-58
2023/10/22 01:08:08;;;;;;;7.22;0.90;;;13.80;99.90;;;;;;5063206;28;20032;-56
2023/10/22 01:10:34;;;;;;;3.17;0.80;;;13.80;99.90;;;;;;5054486;28;20499;-60
2023/10/22 01:13:01;;;;;;;3.50;0.80;;;13.80;99.90;;;;;;5064060;28;20032;-56
2023/10/22 01:15:27;;;;;;;8.95;1.02;;;13.80;99.90;;;;;;5059823;28;20021;-58
2023/10/22 01:17:53;;;;;;;3.53;0.98;;;13.80;99.90;;;;;;5060690;28;20031;-56
2023/10/22 01:20:19;;;;;;;12.05;1.20;;;13.80;99.90;;;;;;5056313;28;20043;-55
2023/10/22 01:22:44;;;;;;;5.95;1.15;;;13.80;99.90;;;;;;5053725;28;20036;-57
2023/10/22 01:25:10;;;;;;;3.78;0.70;;;13.80;99.90;;;;;;5059105;28;20037;-56
2023/10/22 01:27:37;;;;;;;7.00;0.70;;;13.80;99.90;;;;;;5060415;28;20462;-59
2023/10/22 01:30:03;;;;;;;4.38;0.85;;;13.70;99.90;;;;;;5062630;28;20107;-59
2023/10/22 01:32:33;;;;;;;3.05;0.88;;;13.70;99.90;;;;;;5060728;28;20095;-58
2023/10/22 01:34:59;;;;;;;3.70;0.75;;;13.70;99.90;;;;;;5056123;28;20028;-59
2023/10/22 01:37:25;;;;;;;5.57;0.98;;;13.70;99.90;;;;;;5056252;28;20025;-60
2023/10/22 01:39:51;;;;;;;14.13;1.08;;;13.70;99.90;;;;;;5058210;28;20040;-54
2023/10/22 01:42:16;;;;;;;6.28;1.02;;;13.70;99.90;;;;;;5059124;28;20064;-57
2023/10/22 01:44:42;;;;;;;8.70;1.10;;;13.70;99.90;;;;;;5052380;28;20396;-60
2023/10/22 01:47:08;;;;;;;8.32;1.40;;;13.60;99.90;;;;;;5059457;28;20033;-58
2023/10/22 01:49:34;;;;;;;5.32;0.80;;;13.60;99.90;;;;;;5057867;28;20028;-57
2023/10/22 01:51:59;;;;;;;3.03;0.70;;;13.60;99.90;;;;;;5059846;28;20100;-57
2023/10/22 01:54:25;;;;;;;6.32;0.90;;;13.60;99.90;;;;;;5060826;28;20112;-57
2023/10/22 01:56:50;;;;;;;7.97;1.17;;;13.60;99.90;;;;;;5060005;28;20029;-59
2023/10/22 01:59:16;;;;;;;6.68;0.70;;;13.60;99.90;;;;;;5062190;28;20020;-55
2023/10/22 02:01:42;;;;;;;4.18;0.75;;;13.60;99.90;;;;;;5061836;28;20039;-55
2023/10/22 02:04:08;;;;;;;4.97;0.95;;;13.60;99.90;;;;;;5066409;28;20594;-59
2023/10/22 02:06:33;;;;;;;4.43;1.58;;;13.60;99.90;;;;;;5059044;28;20112;-60
2023/10/22 02:09:00;;;;;;;5.55;0.85;;;13.50;99.90;;;;;;5059836;28;20160;-57
2023/10/22 02:11:26;;;;;;;4.60;0.80;;;13.50;99.90;;;;;;5060213;28;20044;-59
2023/10/22 02:13:52;;;;;;;4.22;1.20;;;13.50;99.90;;;;;;5063577;28;20467;-56
2023/10/22 02:16:18;;;;;;;6.50;1.05;;;13.50;99.90;;;;;;5058718;28;20063;-59
2023/10/22 02:18:44;;;;;;;3.45;0.73;;;13.50;99.90;;;;;;5060816;28;20067;-58
2023/10/22 02:21:10;;;;;;;5.70;0.98;;;13.50;99.90;;;;;;5058645;28;20036;-60
2023/10/22 02:23:36;;;;;;;8.15;1.02;;;13.50;99.90;;;;;;5059412;28;20035;-58
2023/10/22 02:26:01;;;;;;;9.95;1.20;;;13.50;99.90;;;;;;5062057;28;20479;-55
2023/10/22 02:28:27;;;;;;;2.75;0.68;;;13.40;99.90;;;;;;5057490;28;20386;-59
2023/10/22 02:30:52;;;;;;;5.25;0.98;;;13.40;99.90;;;;;;5056774;28;20036;-58
2023/10/22 02:33:18;;;;;;;6.97;1.17;;;13.40;99.90;;;;;;5062936;28;20130;-58
2023/10/22 02:35:45;;;;;;;4.53;1.00;;;13.40;99.90;;;;;;5052906;28;20029;-57
2023/10/22 02:38:15;;;;;;;3.55;1.30;;;13.40;99.90;;;;;;5058351;28;20057;-59
2023/10/22 02:40:41;;;;;;;7.85;1.55;;;13.40;99.90;;;;;;5057247;28;20071;-57
2023/10/22 02:43:07;;;;;;;3.38;0.93;;;13.40;99.90;;;;;;5060189;28;20029;-59
2023/10/22 02:45:32;;;;;;;8.48;1.13;;;13.40;99.90;;;;;;5054922;28;20021;-57
2023/10/22 02:47:59;;;;;;;1.77;0.90;;;13.30;99.90;;;;;;5057470;28;20033;-57
2023/10/22 02:50:25;;;;;;;5.03;0.82;;;13.30;99.90;;;;;;5064604;28;20515;-59
2023/10/22 02:52:51;;;;;;;6.90;1.20;;;13.30;99.90;;;;;;5059999;28;20021;-56
2023/10/22 02:55:17;;;;;;;3.25;1.00;;;13.30;99.90;;;;;;5056174;28;20514;-58
2023/10/22 02:57:43;;;;;;;2.83;0.90;;;13.40;99.90;;;;;;5060510;28;20044;-60
2023/10/22 03:00:10;;;;;;;5.00;0.70;;;13.30;99.90;;;;;;5059556;28;20123;-58
2023/10/22 03:02:37;;;;;;;1.85;0.80;;;13.30;99.90;;;;;;5062070;28;20116;-58
2023/10/22 03:05:02;;;;;;;4.78;1.10;;;13.30;99.90;;;;;;5060942;28;20028;-59
2023/10/22 03:07:28;;;;;;;3.03;0.85;;;13.30;99.90;;;;;;5061307;28;20559;-59
2023/10/22 03:09:54;;;;;;;1.65;0.70;;;13.30;99.90;;;;;;5061074;28;20035;-58
2023/10/22 03:12:19;;;;;;;3.65;0.70;;;13.30;99.90;;;;;;5063789;28;20494;-57
2023/10/22 03:14:45;;;;;;;0.95;0.50;;;13.20;99.90;;;;;;5053704;28;20100;-60
2023/10/22 03:17:10;;;;;;;1.40;0.50;;;13.30;99.90;;;;;;5058534;28;20029;-58
2023/10/22 03:19:36;;;;;;;2.17;0.60;;;13.20;99.90;;;;;;5062290;28;20038;-58
2023/10/22 03:22:02;;;;;;;2.67;0.47;;;13.30;99.90;;;;;;5060233;28;20036;-59
2023/10/22 03:24:27;;;;;;;1.90;0.43;;;13.30;99.90;;;;;;5058403;28;20016;-58
2023/10/22 03:26:53;;;;;;;1.45;0.40;;;13.30;99.90;;;;;;5057232;28;20030;-56
2023/10/22 03:29:18;;;;;;;3.25;0.68;;;13.30;99.90;;;;;;5065311;28;20398;-58
2023/10/22 03:31:44;;;;;;;1.65;0.50;;;13.30;99.90;;;;;;5058990;28;20506;-57
2023/10/22 03:34:10;;;;;;;1.25;0.68;;;13.30;99.90;;;;;;5055462;28;20029;-58
2023/10/22 03:36:35;;;;;;;2.05;0.40;;;13.30;99.90;;;;;;5055846;28;20025;-58
2023/10/22 03:39:01;;;;;;;1.70;0.40;;;13.30;99.90;;;;;;5055949;28;20048;-57
2023/10/22 03:41:26;;;;;;;5.10;0.40;;;13.30;99.90;;;;;;5061614;28;20095;-60
2023/10/22 03:43:52;;;;;;;2.65;0.40;;;13.30;99.90;;;;;;5060133;28;20035;-58
2023/10/22 03:46:17;;;;;;;1.45;0.30;;;13.30;99.90;;;;;;5054985;28;20078;-59
2023/10/22 03:48:43;;;;;;;1.15;0.35;;;13.30;99.90;;;;;;5053033;28;20056;-58
2023/10/22 03:51:08;;;;;;;6.03;0.30;;;13.30;99.90;;;;;;5059652;28;20501;-57
2023/10/22 03:53:35;;;;;;;2.10;0.30;;;13.40;99.90;;;;;;5061573;28;20037;-57
2023/10/22 03:56:01;;;;;;;3.85;0.60;;;13.40;99.90;;;;;;5059170;28;20017;-56
2023/10/22 03:58:26;;;;;;;1.27;0.40;;;13.30;99.90;;;;;;5065631;28;20405;-54
2023/10/22 04:00:55;;;;;;;0.90;0.28;;;13.30;99.90;;;;;;5056495;28;20554;-55
2023/10/22 04:03:21;;;;;;;1.15;0.32;;;13.30;99.90;;;;;;5066844;28;20024;-59
2023/10/22 04:05:53;;;;;;;0.50;0.20;;;13.30;99.90;;;;;;5059247;28;20025;-57
2023/10/22 04:08:19;;;;;;;1.17;0.22;;;13.30;99.90;;;;;;5067615;28;20023;-56
2023/10/22 04:10:46;;;;;;;1.33;0.40;;;13.40;99.90;;;;;;5055016;28;20033;-56
2023/10/22 04:13:11;;;;;;;4.40;0.30;;;13.40;99.90;;;;;;5062622;28;20399;-57
2023/10/22 04:15:37;;;;;;;1.13;0.20;;;13.40;99.90;;;;;;5054039;28;20021;-58
2023/10/22 04:18:03;;;;;;;1.27;0.30;;;13.40;99.90;;;;;;5060883;28;20044;-52
2023/10/22 04:20:34;;;;;;;0.17;0.17;;;13.30;99.90;;;;;;5054673;28;20033;-59
2023/10/22 04:23:00;;;;;;;0.65;0.22;;;13.40;99.90;;;;;;5060931;28;20411;-54
2023/10/22 04:25:26;;;;;;;1.40;0.30;;;13.40;99.90;;;;;;5062763;28;20009;-59
2023/10/22 04:27:52;;;;;;;1.08;0.30;;;13.30;99.90;;;;;;5059069;28;20368;-59
2023/10/22 04:30:17;;;;;;;2.28;0.25;;;13.40;99.90;;;;;;5057750;28;20037;-57
2023/10/22 04:32:43;;;;;;;1.45;0.20;;;13.30;99.90;;;;;;5058604;28;20033;-57
2023/10/22 04:35:08;;;;;;;1.70;0.25;;;13.30;99.90;;;;;;5063038;28;20075;-55
2023/10/22 04:37:34;;;;;;;2.97;0.40;;;13.30;99.90;;;;;;5064001;28;20032;-57
2023/10/22 04:40:00;;;;;;;0.57;0.30;;;13.20;99.90;;;;;;5058097;28;20090;-56
2023/10/22 04:42:27;;;;;;;1.00;0.30;;;13.20;99.90;;;;;;5064175;28;20031;-59
2023/10/22 04:44:52;;;;;;;0.73;0.20;;;13.20;99.90;;;;;;5060057;28;20020;-60
2023/10/22 04:47:18;;;;;;;0.45;0.20;;;13.20;99.90;;;;;;5068853;28;20032;-59
2023/10/22 04:49:44;;;;;;;1.20;0.22;;;13.10;99.90;;;;;;5061488;28;20020;-60
2023/10/22 04:52:17;;;;;;;0.57;0.20;;;13.10;99.90;;;;;;5063632;28;20077;-58
2023/10/22 04:54:42;;;;;;;1.02;0.40;;;13.10;99.90;;;;;;5053869;28;20499;-59
2023/10/22 04:57:08;;;;;;;0.50;0.28;;;13.10;99.90;;;;;;5059412;28;20071;-59
2023/10/22 04:59:33;;;;;;;2.47;0.30;;;13.10;99.90;;;;;;5057706;28;20060;-58
2023/10/22 05:02:00;;;;;;;3.00;0.30;;;13.10;99.90;;;;;;5057578;28;20065;-60
2023/10/22 05:04:25;;;;;;;0.70;0.10;;;13.10;99.90;;;;;;5055986;28;20028;-58
2023/10/22 05:06:53;;;;;;;0.38;0.20;;;13.10;99.90;;;;;;5053792;28;20021;-57
2023/10/22 05:09:19;;;;;;;0.13;0.13;;;13.10;99.90;;;;;;5057434;28;20027;-56
2023/10/22 05:11:44;;;;;;;0.10;0.10;;;13.20;99.90;;;;;;5061161;28;20024;-56
2023/10/22 05:14:10;;;;;;;0.20;0.20;;;13.20;99.90;;;;;;5055395;28;20021;-59
2023/10/22 05:16:35;;;;;;;1.02;0.30;;;13.20;99.90;;;;;;5060643;28;20028;-60
2023/10/22 05:19:01;;;;;;;0.80;0.20;;;13.20;99.90;;;;;;5055668;28;20032;-55
2023/10/22 05:21:26;;;;;;;1.00;0.15;;;13.20;99.90;;;;;;5064352;28;20394;-59
2023/10/22 05:23:52;;;;;;;1.42;0.22;;;13.30;99.90;;;;;;5061161;28;20031;-60
2023/10/22 05:26:17;;;;;;;1.33;0.40;;;13.30;99.90;;;;;;5054016;28;20050;-56
2023/10/22 05:28:43;;;;;;;1.90;0.20;;;13.30;99.90;;;;;;5063666;28;20039;-57
2023/10/22 05:31:19;;;;;;;0.25;0.20;;;13.30;99.90;;;;;;5059130;28;20104;-56
2023/10/22 05:33:45;;;;;;;0.43;0.17;;;13.30;99.90;;;;;;5060764;28;20029;-56
2023/10/22 05:36:15;;;;;;;0.95;0.10;;;13.20;99.90;;;;;;5052847;28;20028;-56
2023/10/22 05:38:41;;;;;;;0.20;0.20;;;13.30;99.90;;;;;;5055112;28;20039;-57
2023/10/22 05:41:07;;;;;;;1.55;0.30;;;13.30;99.90;;;;;;5058205;28;20052;-57
2023/10/22 05:43:32;;;;;;;0.10;0.10;;;13.30;99.90;;;;;;5065963;28;20034;-52
2023/10/22 05:45:58;;;;;;;0.20;0.20;;;13.20;99.90;;;;;;5059981;28;20423;-53
2023/10/22 05:48:23;;;;;;;0.20;0.20;;;13.30;99.90;;;;;;5061685;28;20029;-57
2023/10/22 05:50:50;;;;;;;0.95;0.15;;;13.20;99.90;;;;;;5059790;28;20031;-57
2023/10/22 05:53:16;;;;;;;3.20;0.17;;;13.30;99.90;;;;;;5058531;28;20386;-58
2023/10/22 05:55:41;;;;;;;1.23;0.20;;;13.30;99.90;;;;;;5057806;28;20017;-56
2023/10/22 05:58:07;;;;;;;1.05;0.20;;;13.30;99.90;;;;;;5059262;28;20081;-58
2023/10/22 06:00:33;;;;;;;1.10;0.32;;;13.30;99.90;;;;;;5068794;28;20119;-56
2023/10/22 06:02:58;;;;;;;1.85;0.20;;;13.30;99.90;;;;;;5060851;28;20100;-55
2023/10/22 06:05:24;;;;;;;3.13;0.63;;;13.30;99.90;;;;;;5067144;28;20063;-57
2023/10/22 06:07:52;;;;;;;0.20;0.20;;;13.30;99.90;;;;;;5059508;28;20127;-53
2023/10/22 06:10:17;;;;;;;0.85;0.30;;;13.30;99.90;;;;;;5062255;28;20083;-54
2023/10/22 06:12:43;;;;;;;0.20;0.17;;;13.30;99.90;;;;;;5055952;28;20446;-52
2023/10/22 06:15:09;;;;;;;0.30;0.20;;;13.40;99.90;;;;;;5062241;28;20040;-58
2023/10/22 06:17:34;;;;;;;0.70;0.30;;;13.40;99.90;;;;;;5057550;28;20036;-56
2023/10/22 06:20:00;;;;;;;0.25;0.20;;;13.40;99.90;;;;;;5055325;28;20040;-56
2023/10/22 06:22:26;;;;;;;1.35;0.30;;;13.40;99.90;;;;;;5053189;28;20028;-57
2023/10/22 06:24:51;;;;;;;0.40;0.40;;;13.20;99.90;;;;;;5057273;28;20021;-58
2023/10/22 06:27:17;;;;;;;1.23;0.50;;;13.20;99.90;;;;;;5057358;28;20033;-60
2023/10/22 06:29:47;;;;;;;1.23;0.40;;;13.10;99.90;;;;;;5054977;28;20076;-57
2023/10/22 06:32:12;;;;;;;0.63;0.40;;;13.00;99.90;;;;;;5061378;28;20074;-57
2023/10/22 06:34:38;;;;;;;0.28;0.28;;;12.90;99.90;;;;;;5060933;28;20518;-59
2023/10/22 06:37:03;;;;;;;1.00;0.40;;;12.70;99.90;;;;;;5059276;28;20162;-55
2023/10/22 06:39:29;;;;;;;0.32;0.30;;;12.60;99.90;;;;;;5064541;28;20036;-55
2023/10/22 06:41:54;;;;;;;1.67;0.50;;;12.50;99.90;;;;;;5058099;28;20041;-55
2023/10/22 06:44:20;;;;;;;0.45;0.40;;;12.50;99.90;;;;;;5060891;28;20114;-56
2023/10/22 06:46:46;;;;;;;0.43;0.43;;;12.40;99.90;;;;;;5059534;28;20482;-56
2023/10/22 06:49:12;;;;;;;6.30;1.75;;;12.30;99.90;;;;;;5054891;28;20033;-54
2023/10/22 06:51:38;;;;;;;1.48;0.45;;;12.10;99.90;;;;;;5056437;28;20484;-59
2023/10/22 06:54:05;;;;;;;2.92;0.47;;;12.10;99.90;;;;;;5058570;28;20017;-60
2023/10/22 06:56:31;;;;;;;5.85;0.63;;;12.00;99.90;;;;;;5057543;28;20119;-58
2023/10/22 06:58:56;;;;;;;0.60;0.40;;;12.00;99.90;;;;;;5064646;28;20109;-58
2023/10/22 07:01:22;;;;;;;2.80;0.50;;;12.00;99.90;;;;;;5061081;28;20028;-57
2023/10/22 07:03:48;;;;;;;6.82;0.80;;;12.00;99.90;;;;;;5063058;28;20021;-58
2023/10/22 07:06:14;;;;;;;1.10;0.55;;;11.90;99.90;;;;;;5055632;28;20075;-59
2023/10/22 07:08:39;;;;;;;1.45;0.70;;;11.80;99.90;;;;;;5060626;28;20524;-60
2023/10/22 07:11:05;;;;;;;2.28;0.77;;;11.80;99.90;;;;;;5056333;28;20031;-59
2023/10/22 07:13:30;;;;;;;4.05;0.85;;;11.70;99.90;;;;;;5055138;28;20033;-59
2023/10/22 07:15:56;;;;;;;2.17;1.00;;;11.80;99.90;;;;;;5055997;28;20026;-60
2023/10/22 07:18:22;;;;;;;3.47;0.98;;;11.80;99.90;;;;;;5060303;28;20059;-59
2023/10/22 07:20:48;;;;;;;8.23;0.95;;;11.90;99.90;;;;;;5055599;28;20054;-58
2023/10/22 07:23:14;;;;;;;3.15;1.17;;;11.90;99.90;;;;;;5052584;28;20075;-56
2023/10/22 07:25:39;;;;;;;2.60;1.00;;;11.90;99.90;;;;;;5061199;28;20017;-59
2023/10/22 07:28:05;;;;;;;3.97;1.02;;;11.90;99.90;;;;;;5063288;28;20063;-58
2023/10/22 07:30:31;;;;;;;4.53;1.08;;;11.80;99.90;;;;;;5056394;28;20032;-59
2023/10/22 07:32:57;;;;;;;2.92;0.98;;;11.80;99.90;;;;;;5058820;28;20020;-59
2023/10/22 07:35:23;;;;;;;2.65;0.75;;;11.80;99.90;;;;;;5062270;28;20085;-57
2023/10/22 07:37:48;;;;;;;1.73;0.88;;;11.70;99.90;;;;;;5059603;28;20063;-59
2023/10/22 07:40:17;;;;;;;7.43;1.00;;;11.80;99.90;;;;;;5054474;28;20162;-57
2023/10/22 07:42:45;;;;;;;1.88;0.80;;;11.60;99.90;;;;;;5058195;28;20029;-59
2023/10/22 07:45:12;;;;;;;3.80;0.93;;;11.70;99.90;;;;;;5063997;28;20021;-58
2023/10/22 07:47:38;;;;;;;2.42;0.80;;;11.80;99.90;;;;;;5064757;28;20028;-57
2023/10/22 07:50:05;;;;;;;2.88;0.70;;;11.80;99.90;;;;;;5057390;28;20032;-59
2023/10/22 07:52:31;;;;;;;5.80;0.93;;;11.90;99.90;;;;;;5063761;28;20032;-59
2023/10/22 07:54:57;;;;;;;4.47;0.80;;;12.00;99.90;;;;;;5057497;28;20425;-58
2023/10/22 07:57:24;;;;;;;2.92;0.93;;;12.00;99.90;;;;;;5064469;28;20024;-58
2023/10/22 07:59:50;;;;;;;3.78;1.45;;;12.00;99.90;;;;;;5057888;28;20171;-57
2023/10/22 08:02:15;;;;;;;7.55;0.90;;;12.00;99.90;;;;;;5056683;28;20104;-58
2023/10/22 08:04:41;;;;;;;1.80;0.90;;;12.10;99.90;;;;;;5058237;28;20437;-59
2023/10/22 08:07:07;;;;;;;4.97;1.25;;;12.10;99.90;;;;;;5062307;28;20020;-58
2023/10/22 08:09:33;;;;;;;4.20;0.82;;;12.00;99.90;;;;;;5060104;28;20036;-58
2023/10/22 08:11:58;;;;;;;2.05;0.70;;;12.00;99.90;;;;;;5060439;28;20142;-56
2023/10/22 08:14:24;;;;;;;1.92;0.80;;;12.00;99.90;;;;;;5057720;28;20036;-59
2023/10/22 08:16:50;;;;;;;2.90;0.70;;;12.00;99.90;;;;;;5057814;28;20126;-59
2023/10/22 08:19:16;;;;;;;1.48;0.70;;;12.10;99.90;;;;;;5060733;28;20086;-59
2023/10/22 08:21:41;;;;;;;1.65;0.70;;;12.00;99.90;;;;;;5055879;28;20037;-59
2023/10/22 08:24:07;;;;;;;3.28;0.75;;;12.10;99.90;;;;;;5060069;28;20037;-57
2023/10/22 08:26:32;;;;;;;2.20;0.70;;;12.10;99.90;;;;;;5056360;28;20120;-57
2023/10/22 08:28:58;;;;;;;0.73;0.68;;;11.90;99.90;;;;;;5057201;28;20511;-56
2023/10/22 08:31:24;;;;;;;1.88;1.00;;;12.00;99.90;;;;;;5053933;28;20463;-55
2023/10/22 08:33:49;;;;;;;3.38;0.85;;;12.10;99.90;;;;;;5060111;28;20024;-57
2023/10/22 08:36:15;;;;;;;1.05;0.70;;;12.10;99.90;;;;;;5057398;28;20036;-60
2023/10/22 08:38:41;;;;;;;1.80;0.80;;;12.10;99.90;;;;;;5066643;28;20028;-60
2023/10/22 08:41:19;;;;;;;1.75;0.60;;;12.10;99.90;;;;;;5057937;28;20029;-60
2023/10/22 08:43:47;;;;;;;2.03;0.80;;;12.00;99.90;;;;;;5057178;28;20524;-58
2023/10/22 08:46:13;;;;;;;4.30;0.90;;;12.00;99.90;;;;;;5063394;28;20032;-59
2023/10/22 08:48:40;;;;;;;1.60;0.70;;;12.10;99.90;;;;;;5060968;28;20776;-58
2023/10/22 08:51:07;;;;;;;1.63;0.70;;;12.00;99.90;;;;;;5057533;28;20033;-55
2023/10/22 08:53:32;;;;;;;6.32;1.40;;;12.10;99.90;;;;;;5057420;28;20118;-58
2023/10/22 08:56:00;;;;;;;2.22;1.20;;;12.10;99.90;;;;;;5058695;28;20029;-61
2023/10/22 08:58:26;;;;;;;2.65;0.88;;;12.20;99.90;;;;;;5059940;28;20027;-57
2023/10/22 09:00:52;;;;;;;2.65;0.60;;;12.20;99.90;;;;;;5059191;28;20029;-56
2023/10/22 09:03:19;;;;;;;1.95;0.70;;;12.20;99.90;;;;;;5062044;28;20025;-57
2023/10/22 09:05:46;;;;;;;1.58;0.73;;;12.20;99.90;;;;;;5058917;28;20584;-58
2023/10/22 09:08:11;;;;;;;2.30;0.75;;;12.20;99.90;;;;;;5054711;28;20429;-58
2023/10/22 09:10:37;;;;;;;2.75;1.00;;;12.20;99.90;;;;;;5055973;28;20029;-55
2023/10/22 09:13:10;;;;;;;2.83;0.90;;;12.10;99.90;;;;;;5057345;28;20513;-56
2023/10/22 09:15:37;;;;;;;1.30;0.85;;;12.30;99.90;;;;;;5066713;28;20021;-60
2023/10/22 09:18:03;;;;;;;1.88;0.80;;;12.20;99.90;;;;;;5058881;28;20129;-57
2023/10/22 09:20:29;;;;;;;1.08;0.80;;;12.20;99.90;;;;;;5056006;28;20115;-57
2023/10/22 09:23:19;;;;;;;1.00;0.90;;;12.40;99.90;;;;;;5055846;28;20205;-58
2023/10/22 09:25:50;;;;;;;2.00;0.70;;;12.40;99.90;;;;;;5053283;28;20052;-59
2023/10/22 09:28:21;;;;;;;3.58;1.05;;;12.40;99.90;;;;;;5057973;28;20029;-58
2023/10/22 09:30:53;;;;;;;3.25;1.10;;;12.40;99.90;;;;;;5057472;28;20761;-58
2023/10/22 09:33:29;;;;;;;2.50;1.10;;;12.50;99.90;;;;;;5062643;28;20035;-57
2023/10/22 09:36:04;;;;;;;4.78;1.02;;;12.60;99.90;;;;;;5060464;28;20021;-58
2023/10/22 09:38:46;;;;;;;1.35;0.52;;;12.60;99.90;;;;;;5052862;28;20025;-56
2023/10/22 09:41:25;;;;;;;1.58;0.65;;;12.60;99.90;;;;;;5058328;28;20530;-57
2023/10/22 09:43:51;;;;;;;1.92;0.85;;;12.50;99.90;;;;;;5067895;28;20024;-58
2023/10/22 09:46:18;;;;;;;1.55;0.80;;;12.50;99.90;;;;;;5060863;28;20033;-54
2023/10/22 09:48:50;;;;;;;0.50;0.50;;;12.40;99.90;;;;;;5069531;28;20035;-56
2023/10/22 09:51:17;;;;;;;0.95;0.77;;;12.50;99.90;;;;;;5059220;28;20087;-59
2023/10/22 09:53:51;;;;;;;2.00;0.63;;;12.50;99.90;;;;;;5066176;28;20082;-58
2023/10/22 09:56:21;;;;;;;1.88;0.73;;;12.50;99.90;;;;;;5058219;28;20029;-60
2023/10/22 09:59:07;;;;;;;1.83;0.47;;;12.60;99.90;;;;;;5053938;28;20544;-59
2023/10/22 10:01:34;;;;;;;1.05;0.70;;;12.60;99.90;;;;;;5055937;28;20045;-59
2023/10/22 10:04:02;;;;;;;0.93;0.60;;;12.50;99.90;;;;;;5060753;28;20107;-60
2023/10/22 10:06:30;;;;;;;2.35;0.90;;;12.50;99.90;;;;;;5056116;28;20475;-59
2023/10/22 10:08:57;;;;;;;0.90;0.80;;;12.50;99.90;;;;;;5061857;28;20029;-58
2023/10/22 10:11:24;;;;;;;1.20;0.63;;;12.60;99.90;;;;;;5059523;28;20029;-60
2023/10/22 10:13:50;;;;;;;2.17;0.68;;;12.60;99.90;;;;;;5062823;28;20549;-61
2023/10/22 10:16:15;;;;;;;2.10;0.90;;;12.70;99.90;;;;;;5055178;28;20100;-60
2023/10/22 10:19:00;;;;;;;4.90;0.70;;;12.70;99.90;;;;;;5065718;28;20028;-59
2023/10/22 10:21:34;;;;;;;0.55;0.55;;;12.80;99.90;;;;;;5059738;28;21737;-58
2023/10/22 10:24:25;;;;;;;;;;;12.80;99.90;;;;;;5059658;28;20421;-61
2023/10/22 10:26:56;;;;;;;2.25;0.60;;;12.80;99.90;;;;;;5053412;28;19916;-59
2023/10/22 10:29:23;;;;;;;1.25;0.70;;;12.90;99.90;;;;;;5061028;28;20103;-61
2023/10/22 10:31:51;;;;;;;0.50;0.50;;;12.90;99.90;;;;;;5059593;28;20100;-58
2023/10/22 10:34:34;;;;;;;3.92;0.60;;;12.80;99.90;;;;;;5061195;28;20107;-61
2023/10/22 10:37:09;;;;;;;0.70;0.60;;;13.00;99.90;;;;;;5061544;28;20024;-59
2023/10/22 10:39:42;;;;;;;1.15;0.90;;;12.90;99.90;;;;;;5056831;28;20056;-60
2023/10/22 10:42:09;;;;;;;3.30;0.80;;;13.00;99.90;;;;;;5061029;28;20029;-59
2023/10/22 10:45:03;;;;;;;2.25;1.02;;;12.90;99.90;;;;;;5061417;28;20033;-58
2023/10/22 10:47:39;;;;;;;1.80;1.58;;;13.00;99.90;;;;;;5060276;28;20584;-60
2023/10/22 10:50:06;;;;;;;1.70;1.13;;;12.90;99.90;;;;;;5053458;28;20112;-60
2023/10/22 10:52:56;;;;;;;3.75;1.25;;;12.90;99.90;;;;;;5058290;28;20022;-57
2023/10/22 10:55:22;;;;;;;1.10;1.00;;;12.90;99.90;;;;;;5060418;28;20047;-60
2023/10/22 10:57:50;;;;;;;1.30;1.20;;;13.00;99.90;;;;;;5054763;28;20024;-55
2023/10/22 11:00:20;;;;;;;6.07;1.45;;;13.00;99.90;;;;;;5057890;28;20033;-61
2023/10/22 11:02:51;;;;;;;1.50;1.40;;;13.00;99.90;;;;;;5063368;28;20024;-62
2023/10/22 11:05:29;;;;;;;1.27;1.10;;;13.00;99.90;;;;;;5058740;28;20035;-62
2023/10/22 11:07:55;;;;;;;1.60;1.20;;;13.00;99.90;;;;;;5060783;28;20028;-62
2023/10/22 11:10:22;;;;;;;5.05;2.10;;;13.00;99.90;;;;;;5063333;28;20035;-60
2023/10/22 11:12:49;;;;;;;1.85;1.58;;;13.10;99.90;;;;;;5059759;28;20105;-60
2023/10/22 11:15:16;;;;;;;2.40;1.75;;;13.10;99.90;;;;;;5055531;28;20398;-62
2023/10/22 11:17:42;;;;;;;3.85;3.38;;;13.10;99.90;;;;;;5065360;28;20047;-57
2023/10/22 11:20:09;;;;;;;2.55;2.35;;;13.00;99.90;;;;;;5058744;28;20029;-61
2023/10/22 11:22:38;;;;;;;2.20;1.50;;;13.00;99.90;;;;;;5058567;28;20498;-60
2023/10/22 11:25:06;;;;;;;2.17;1.40;;;13.00;99.90;;;;;;5065987;28;20028;-62
2023/10/22 11:27:32;;;;;;;4.07;1.70;;;13.00;99.90;;;;;;5059009;28;20055;-61
2023/10/22 11:30:00;;;;;;;1.20;1.10;;;13.00;99.90;;;;;;5064472;28;20031;-60
2023/10/22 11:32:26;;;;;;;4.18;1.60;;;13.10;99.90;;;;;;5060727;28;20021;-61
2023/10/22 11:34:59;;;;;;;2.83;1.92;;;13.10;99.90;;;;;;5062513;28;20017;-62
2023/10/22 11:37:45;;;;;;;3.88;1.50;;;13.10;99.90;;;;;;5058311;28;20043;-58
2023/10/22 11:40:30;;;;;;;3.58;1.48;;;13.10;99.90;;;;;;5059965;28;20502;-60
2023/10/22 11:42:59;;;;;;;3.55;1.88;;;13.20;99.90;;;;;;5058129;28;20028;-62
2023/10/22 11:45:30;;;;;;;2.75;1.55;;;13.40;99.90;;;;;;5059549;28;20155;-59
2023/10/22 11:48:15;;;;;;;7.55;1.80;;;13.50;99.90;;;;;;5059296;28;20029;-59
2023/10/22 11:50:48;;;;;;;2.50;1.75;;;13.50;99.90;;;;;;5060211;28;20108;-60
2023/10/22 11:53:14;;;;;;;11.80;3.40;;;13.40;99.90;;;;;;5059785;28;20390;-59
2023/10/22 11:55:40;;;;;;;4.15;3.15;;;13.50;99.90;;;;;;5063892;28;20025;-60
2023/10/22 11:58:16;;;;;;;5.40;4.18;;;13.50;99.90;;;;;;5065410;28;20021;-57
2023/10/22 12:00:42;;;;;;;6.28;4.40;;;13.30;99.90;;;;;;5059262;28;20032;-60
2023/10/22 12:03:08;;;;;;;7.88;4.20;;;13.30;99.90;;;;;;5062600;28;20382;-59
2023/10/22 12:05:33;;;;;;;8.40;3.88;;;13.20;99.90;;;;;;5059557;28;20056;-60
2023/10/22 12:07:59;;;;;;;7.47;3.67;;;13.40;99.90;;;;;;5063327;28;20056;-61
2023/10/22 12:10:25;;;;;;;6.40;4.78;;;13.30;99.90;;;;;;5061334;28;20538;-60
2023/10/22 12:12:50;;;;;;;7.03;5.03;;;13.40;99.90;;;;;;5063802;28;20025;-60
2023/10/22 12:15:16;;;;;;;7.20;5.38;;;13.40;99.90;;;;;;5063051;28;20411;-59
2023/10/22 12:17:41;;;;;;;12.63;5.65;;;13.40;99.90;;;;;;5058302;28;20048;-62
2023/10/22 12:20:08;;;;;;;11.07;5.72;;;13.40;99.90;;;;;;5054447;28;20133;-60
2023/10/22 12:22:33;;;;;;;9.27;7.00;;;13.40;99.90;;;;;;5060042;28;20032;-62
2023/10/22 12:25:01;;;;;;;12.43;9.10;;;13.40;99.90;;;;;;5060115;28;20031;-62
2023/10/22 12:27:26;;;;;;;16.00;8.98;;;13.40;99.90;;;;;;5058996;28;20512;-60
2023/10/22 12:29:52;;;;;;;10.55;8.63;;;13.40;99.90;;;;;;5056407;28;20028;-60
2023/10/22 12:32:18;;;;;;;9.27;7.82;;;13.50;99.90;;;;;;5057343;28;20023;-60
2023/10/22 12:34:44;;;;;;;11.30;7.93;;;13.60;99.90;;;;;;5059309;28;20509;-61
2023/10/22 12:37:09;;;;;;;9.32;7.95;;;13.70;99.90;;;;;;5061227;28;20029;-56
2023/10/22 12:39:35;;;;;;;16.90;9.70;;;13.70;99.90;;;;;;5058501;28;20028;-61
2023/10/22 12:42:03;;;;;;;13.57;9.82;;;13.70;99.90;;;;;;5055741;28;20527;-59
2023/10/22 12:44:28;;;;;;;15.45;9.35;;;13.60;99.90;;;;;;5061100;28;20079;-60